createdAt,value
2022-09-06T00:01:22.610Z,74.91
2022-09-06T00:04:55.850Z,75.13
2022-09-06T00:18:17.031Z,75.73
2022-09-06T00:21:49.792Z,76.22
2022-09-06T00:25:35.388Z,76.44
2022-09-06T00:39:00.155Z,76.43
2022-09-06T00:42:38.480Z,76.68
2022-09-06T00:46:06.729Z,76.95
2022-09-06T01:04:00.054Z,77.22
2022-09-06T01:07:46.359Z,77.52
2022-09-06T01:11:39.839Z,77.89
2022-09-06T01:15:25.958Z,76.40
2022-09-06T01:19:09.299Z,77.13
2022-09-06T01:23:04.416Z,77.37
2022-09-06T01:27:11.679Z,77.01
2022-09-06T01:30:39.156Z,77.24
2022-09-06T01:34:24.200Z,76.85
2022-09-06T01:37:56.329Z,77.09
2022-09-06T01:41:27.455Z,76.70
2022-09-06T01:45:02.177Z,76.57
2022-09-06T01:55:25.088Z,77.10
2022-09-06T01:59:10.669Z,77.84
2022-09-06T02:02:53.672Z,78.30
2022-09-06T02:13:25.817Z,78.52
2022-09-06T02:17:01.117Z,78.86
2022-09-06T02:20:38.506Z,79.62
2022-09-06T02:24:15.929Z,79.94
2022-09-06T02:37:43.878Z,80.59
2022-09-06T02:41:21.649Z,81.48
2022-09-06T02:44:56.549Z,81.57
2022-09-06T02:48:30.781Z,82.06
2022-09-06T02:52:04.749Z,82.51
2022-09-06T02:58:32.957Z,82.55
2022-09-06T03:02:05.862Z,83.18
2022-09-06T03:05:39.958Z,83.64
2022-09-06T03:09:14.467Z,85.21
2022-09-06T03:22:42.249Z,86.59
2022-09-06T03:26:16.144Z,86.90
2022-09-06T03:36:50.155Z,88.11
2022-09-06T03:40:24.019Z,89.70
2022-09-06T03:43:57.485Z,90.71
2022-09-06T03:47:30.839Z,90.88
2022-09-06T04:07:41.389Z,92.39
2022-09-06T04:11:16.032Z,93.45
2022-09-06T04:19:04.649Z,91.23
2022-09-06T04:22:38.260Z,90.16
2022-09-06T04:26:13.999Z,89.07
2022-09-06T04:29:47.984Z,88.92
2022-09-06T04:33:21.410Z,89.46
2022-09-06T04:39:57.224Z,88.54
2022-09-06T04:43:33.741Z,87.91
2022-09-06T04:47:15.225Z,87.45
2022-09-06T05:04:08.991Z,85.47
2022-09-06T05:07:42.320Z,84.98
2022-09-06T05:11:16.441Z,83.51
2022-09-06T05:31:33.375Z,78.43
2022-09-06T05:35:07.428Z,78.30
2022-09-06T05:38:41.120Z,77.90
2022-09-06T05:48:42.150Z,76.78
2022-09-06T05:52:15.569Z,75.48
2022-09-06T05:55:49.422Z,73.85
2022-09-06T06:05:50.183Z,70.08
2022-09-06T06:09:23.832Z,69.49
2022-09-06T06:13:01.030Z,69.41
2022-09-06T06:26:32.691Z,65.21
2022-09-06T06:30:06.672Z,65.78
2022-09-06T06:33:41.943Z,64.19
2022-09-06T06:47:05.202Z,63.82
2022-09-06T06:50:39.130Z,63.97
2022-09-06T07:04:02.642Z,62.90
2022-09-06T07:07:40.978Z,61.61
2022-09-06T07:11:24.408Z,61.86
2022-09-06T07:24:48.228Z,60.37
2022-09-06T07:28:16.113Z,58.48
2022-09-06T07:35:43.697Z,57.61
2022-09-06T07:39:18.864Z,57.91
2022-09-06T07:42:52.621Z,58.66
2022-09-06T07:46:29.351Z,57.94
2022-09-06T08:17:12.653Z,52.38
2022-09-06T08:21:11.515Z,52.74
2022-09-06T08:24:47.183Z,53.15
2022-09-06T08:31:39.287Z,53.57
2022-09-06T08:41:42.340Z,50.83
2022-09-06T08:45:22.074Z,50.50
2022-09-06T08:48:58.522Z,49.95
2022-09-06T09:02:18.812Z,47.96
2022-09-06T09:05:55.902Z,47.21
2022-09-06T09:09:33.313Z,47.66
2022-09-06T09:22:58.733Z,47.23
2022-09-06T09:26:39.406Z,47.07
2022-09-06T09:40:59.943Z,46.07
2022-09-06T09:44:37.833Z,46.68
2022-09-06T09:48:27.746Z,45.76
2022-09-06T10:15:42.394Z,44.68
2022-09-06T10:19:38.322Z,45.58
2022-09-06T10:23:17.979Z,45.69
2022-09-06T10:26:56.013Z,46.72
2022-09-06T10:54:12.363Z,44.44
2022-09-06T11:08:46.830Z,45.68
2022-09-06T11:12:30.132Z,44.27
2022-09-06T11:33:49.842Z,43.79
2022-09-06T11:37:33.082Z,43.92
2022-09-06T11:41:19.346Z,43.52
2022-09-06T11:59:14.891Z,44.93
2022-09-06T12:02:48.780Z,46.77
2022-09-06T12:06:47.131Z,44.34
2022-09-06T12:17:49.531Z,46.45
2022-09-06T12:25:00.141Z,46.79
2022-09-06T12:28:50.073Z,46.77
2022-09-06T12:39:21.611Z,47.57
2022-09-06T12:42:57.371Z,48.02
2022-09-06T12:46:33.993Z,46.68
2022-09-06T13:07:21.100Z,46.90
2022-09-06T13:10:59.514Z,45.60
2022-09-06T13:14:36.215Z,46.42
2022-09-06T13:18:34.712Z,46.15
2022-09-06T13:38:54.071Z,44.57
2022-09-06T13:42:33.591Z,44.70
2022-09-06T13:46:12.196Z,44.62
2022-09-06T14:03:25.363Z,45.57
2022-09-06T14:06:46.521Z,45.57
2022-09-06T14:10:21.887Z,44.72
2022-09-06T14:13:36.784Z,44.51
2022-09-06T14:34:18.098Z,46.58
2022-09-06T14:37:53.321Z,47.13
2022-09-06T14:41:27.992Z,46.89
2022-09-06T14:51:30.084Z,47.77
2022-09-06T14:55:03.852Z,48.22
2022-09-06T14:58:38.016Z,48.49
2022-09-06T15:02:11.742Z,48.15
2022-09-06T15:05:45.461Z,47.81
2022-09-06T15:22:41.071Z,45.83
2022-09-06T15:26:16.447Z,46.66
2022-09-06T15:29:53.932Z,45.51
2022-09-06T15:33:30.402Z,46.45
2022-09-06T15:37:05.322Z,46.94
2022-09-06T15:50:52.041Z,47.42
2022-09-06T15:54:46.036Z,47.73
2022-09-06T15:58:19.623Z,46.90
2022-09-06T16:01:55.706Z,47.10
2022-09-06T16:18:49.534Z,47.72
2022-09-06T16:22:22.994Z,48.77
2022-09-06T16:29:11.835Z,49.22
2022-09-06T16:32:46.833Z,50.03
2022-09-06T16:36:16.989Z,50.57
2022-09-06T16:39:45.973Z,50.74
2022-09-06T16:43:20.041Z,51.03
2022-09-06T16:46:54.162Z,51.35
2022-09-06T16:50:27.851Z,51.85
2022-09-06T16:54:02.421Z,52.54
2022-09-06T16:57:40.992Z,53.05
2022-09-06T17:18:03.672Z,55.29
2022-09-06T17:21:39.560Z,56.36
2022-09-06T17:25:14.394Z,57.48
2022-09-06T17:28:48.579Z,58.11
2022-09-06T17:45:46.901Z,59.65
2022-09-06T17:49:22.971Z,60.43
2022-09-06T18:06:24.812Z,62.96
2022-09-06T18:09:59.476Z,63.30
2022-09-06T18:13:35.071Z,63.93
2022-09-06T18:17:12.152Z,63.82
2022-09-06T18:34:19.962Z,64.66
2022-09-06T18:37:53.118Z,66.11
2022-09-06T18:41:42.799Z,66.85
2022-09-06T18:45:08.781Z,66.58
2022-09-06T18:58:39.393Z,66.29
2022-09-06T19:02:13.647Z,66.48
2022-09-06T19:05:48.989Z,66.87
2022-09-06T19:09:25.872Z,66.84
2022-09-06T19:13:00.231Z,66.80
2022-09-06T19:16:34.760Z,67.58
2022-09-06T19:20:12.831Z,66.75
2022-09-06T19:23:56.919Z,66.80
2022-09-06T19:37:41.528Z,66.22
2022-09-06T19:41:13.977Z,65.96
2022-09-06T19:44:45.049Z,65.49
2022-09-06T19:58:12.491Z,63.97
2022-09-06T20:01:47.614Z,63.09
2022-09-06T20:05:20.472Z,62.74
2022-09-06T20:18:45.559Z,61.64
2022-09-06T20:22:19.741Z,61.98
2022-09-06T20:26:02.441Z,61.63
2022-09-06T20:29:36.413Z,61.09
2022-09-06T20:39:32.633Z,60.00
2022-09-06T20:43:06.254Z,60.05
2022-09-06T20:46:42.550Z,59.54
2022-09-06T21:00:22.061Z,59.10
2022-09-06T21:03:56.751Z,58.72
2022-09-06T21:07:29.173Z,58.98
2022-09-06T21:11:02.946Z,59.14
2022-09-06T21:24:25.772Z,58.92
2022-09-06T21:28:00.312Z,59.19
2022-09-06T21:31:36.492Z,59.16
2022-09-06T21:38:06.472Z,59.41
2022-09-06T21:41:40.811Z,59.85
2022-09-06T21:45:15.052Z,59.19
2022-09-06T21:48:49.987Z,59.83
2022-09-06T22:05:42.870Z,59.81
2022-09-06T22:09:17.082Z,59.36
2022-09-06T22:23:15.041Z,59.61
2022-09-06T22:26:46.115Z,58.95
2022-09-06T22:30:17.492Z,60.01
2022-09-06T22:33:50.805Z,59.32
2022-09-06T22:51:16.682Z,60.08
2022-09-06T22:54:47.711Z,61.33
2022-09-06T22:58:18.821Z,61.59
2022-09-06T23:01:54.852Z,61.76
2022-09-06T23:11:53.212Z,61.11
2022-09-06T23:15:26.851Z,61.48
2022-09-06T23:19:00.751Z,61.90
2022-09-06T23:22:57.177Z,61.97
2022-09-06T23:26:32.857Z,62.60
2022-09-06T23:30:08.594Z,63.10
2022-09-06T23:47:03.431Z,63.60
2022-09-06T23:50:37.193Z,64.26
2022-09-06T23:54:11.091Z,64.67
2022-09-06T23:57:44.512Z,65.23
